Time Latitude Longitude Accuracy (66% radius in meters) Altitude (meters) Speed (km/hour) Bearing (degrees) Battery (%) GPS flag
10:43:23 60.371076 29.556729 24 89.332551305173 0 67.555969238281 78 1 delete
10:43:11 60.371080 29.556742 16 89.903003286629 0.013341921381652 67.555969238281 78 1 delete
10:43:08 60.371066 29.556713 12 89.228416436681 1.0952655076981 67.542808532715 78 1 delete
10:43:05 60.371020 29.556629 16 88.17120494902 0.76656889915466 76.877944946289 78 1 delete
10:42:59 60.371003 29.556533 24 85.497731457118 0.75906026363373 50.295543670654 78 1 delete
10:42:56 60.371006 29.556504 24 83.792376759068 0.90315169095993 52.018871307373 78 1 delete
10:42:50 60.370996 29.556426 16 79.613423754532 0.80743283033371 46.221939086914 78 1 delete
10:42:38 60.370981 29.556371 32 77.797408531124 0 88.016189575195 78 1 delete
10:42:29 60.370981 29.556371 24 77.967456688002 0 88.016189575195 78 1 delete
10:42:20 60.370981 29.556371 16 78.112263242767 0 88.016189575195 78 1 delete
10:42:08 60.370981 29.556371 24 78.234589968028 0 88.016189575195 78 1 delete
10:41:56 60.370981 29.556371 12 78.333880361553 0 88.016189575195 78 1 delete
10:41:53 60.370981 29.556371 6 78.278947893477 0 88.016189575195 78 1 delete
10:41:44 60.370905 29.556445 12 78.112938274937 0 88.016189575195 78 1 delete
10:41:32 60.370905 29.556445 12 78.024072474315 0 88.016189575195 78 1 delete
10:41:23 60.370905 29.556445 12 77.9128977779 0 88.016189575195 78 1 delete
10:41:11 60.370905 29.556445 8 77.831816406393 0 88.016189575195 78 1 delete
10:41:08 60.370905 29.556445 6 77.826087254668 1.1571497917175 88.016189575195 78 1 delete
10:41:05 60.370942 29.556341 6 77.959917221031 0 49.325706481934 78 1 delete
10:40:59 60.370965 29.556177 4 78.14128229065 0 49.325706481934 78 1 delete
10:40:50 60.370959 29.556156 6 77.709823024091 1.4384841918945 32.759082794189 78 1 delete
10:40:47 60.370913 29.556107 4 77.554762702189 1.5867502689362 35.8508644104 78 1 delete
10:40:44 60.370862 29.556044 4 77.43203453944 1.8502967357635 42.033485412598 78 1 delete
10:40:41 60.370822 29.555983 4 77.417028409211 1.4527281522751 30.23673248291 78 1 delete
10:40:38 60.370775 29.555914 4 77.500794384412 1.7469611167908 33.330841064453 78 1 delete
10:40:35 60.370729 29.555841 8 77.590239210429 1.6859860420227 30.046146392822 78 1 delete
10:40:32 60.370682 29.555801 4 77.674440073987 1.4474943876266 29.383380889893 78 1 delete
10:40:29 60.370641 29.555742 6 77.85635271489 1.456068277359 39.485424041748 78 1 delete
10:40:26 60.370605 29.555703 6 78.071323363747 1.2565613985062 37.270763397217 78 1 delete
10:40:23 60.370570 29.555648 6 78.108783091143 1.4796386957169 41.791496276855 78 1 delete
10:40:20 60.370522 29.555576 4 78.18945828615 1.820326089859 42.14905166626 78 1 delete
10:40:17 60.370473 29.555501 4 78.323199378856 0 42.637771606445 78 1 delete
10:40:14 60.370447 29.555443 6 78.332437142974 1.48850274086 37.475780487061 78 1 delete
10:40:11 60.370421 29.555389 6 78.463549726373 1.2870066165924 33.620388031006 78 1 delete
10:40:02 60.370359 29.555318 6 78.862778501197 0 232.85366821289 78 1 delete
10:39:50 60.370359 29.555318 6 79.135205390089 0 232.85366821289 78 1 delete
10:39:44 60.370369 29.555343 4 79.103590895808 1.2949566841125 233.54089355469 78 1 delete
10:39:41 60.370401 29.555423 6 79.210975152634 1.4197636842728 214.34657287598 78 1 delete
10:39:38 60.370445 29.555473 4 79.344996763196 1.5458003282547 218.98796081543 78 1 delete
10:39:35 60.370482 29.555532 6 79.446261615278 1.5379295349121 221.26007080078 78 1 delete
10:39:32 60.370519 29.555599 4 79.672490931115 1.7243990898132 219.62002563477 78 1 delete
10:39:29 60.370554 29.555668 6 79.614168939923 1.928906083107 214.3674621582 78 1 delete
10:39:23 60.370630 29.555782 6 79.934160061913 1.6775840520859 214.58291625977 78 1 delete
10:39:17 60.370721 29.555893 4 80.467507173833 1.8651121854782 209.35250854492 78 1 delete
10:39:14 60.370776 29.555943 6 80.574084689617 1.6433503627777 214.8056640625 78 1 delete
10:39:11 60.370821 29.556012 4 80.637580758621 1.8296589851379 218.4688873291 78 1 delete
10:39:05 60.370892 29.556132 6 81.06657626315 1.7564702033997 220.34732055664 78 1 delete
10:39:02 60.370942 29.556195 4 81.372546838703 1.6302168369293 235.72885131836 78 1 delete
10:38:59 60.370971 29.556254 4 81.838177638872 1.4785267114639 232.07664489746 78 1 delete
10:38:53 60.370966 29.556399 4 82.854208014137 1.8657252788544 288.10604858398 78 1 delete